Terminal Aerodrome Forecast
Issued by NWS

Home | Current Version | Previous Version | Text Only | Print | Product List | Glossary On
Versions: 1 2 3 4 5 6 7 8 9 10 11 12 13 14 15 16 17
000
FTUS44 KSJT 180500
TAFBBD
TAF
KBBD 180539Z 1806/1906 16005KT 4SM BR OVC006
      TEMPO 1806/1809 1SM BR OVC003
     FM180900 VRB04KT 1/2SM FG OVC002
     FM181500 VRB04KT P6SM BKN250
     FM190000 05006KT P6SM SCT100=

USA.gov is the U.S. government's official web portal to all federal, state and local government web resources and services.